Time;durP1;ratioP1;P1;durP2;ratioP2;P2;SDS_P1;SDS_P2;PMS_P1;PMS_P2;Temp;Humidity;BMP_temperature;BMP_pressure;BME280_temperature;BME280_humidity;BME280_pressure;Samples;Min_cycle;Max_cycle;Signal;HPM_P1;HPM_P2
2022/04/29 00:00:54;;;;;;;8.98;5.07;;;13.40;98.00;;;;;;4174584;28;20029;-62
2022/04/29 00:02:55;;;;;;;7.90;5.22;;;13.40;97.80;;;;;;4176544;28;20055;-62
2022/04/29 00:04:56;;;;;;;10.13;5.20;;;13.50;97.50;;;;;;4175011;28;20064;-62
2022/04/29 00:06:57;;;;;;;8.03;5.40;;;13.50;97.30;;;;;;4169396;28;20158;-62
2022/04/29 00:08:58;;;;;;;11.65;5.40;;;13.40;97.70;;;;;;4177808;28;20861;-63
2022/04/29 00:10:59;;;;;;;9.10;5.43;;;13.40;98.00;;;;;;4171995;28;20032;-62
2022/04/29 00:12:59;;;;;;;9.20;6.20;;;13.40;97.90;;;;;;4177922;28;20029;-62
2022/04/29 00:15:00;;;;;;;8.52;5.22;;;13.40;97.10;;;;;;4172887;28;20037;-63
2022/04/29 00:17:01;;;;;;;8.38;5.35;;;13.30;97.10;;;;;;4176400;28;20036;-62
2022/04/29 00:19:02;;;;;;;7.85;5.50;;;13.20;97.30;;;;;;4174851;28;20116;-63
2022/04/29 00:21:04;;;;;;;6.97;4.90;;;13.20;97.50;;;;;;4176940;28;20052;-62
2022/04/29 00:23:06;;;;;;;6.70;5.35;;;13.10;97.70;;;;;;4176019;28;20041;-62
2022/04/29 00:25:08;;;;;;;11.77;5.45;;;13.00;97.90;;;;;;4176547;28;20036;-63
2022/04/29 00:27:09;;;;;;;8.45;5.18;;;12.80;97.80;;;;;;4174158;28;20070;-63
2022/04/29 00:29:09;;;;;;;8.93;5.93;;;12.80;98.80;;;;;;4176614;28;20106;-62
2022/04/29 00:31:10;;;;;;;7.53;4.75;;;12.80;99.20;;;;;;4172383;28;20029;-62
2022/04/29 00:33:11;;;;;;;9.27;5.55;;;12.80;99.40;;;;;;4174187;28;20087;-61
2022/04/29 00:35:11;;;;;;;9.18;5.70;;;12.70;98.90;;;;;;4174592;28;20128;-64
2022/04/29 00:37:12;;;;;;;9.38;4.88;;;12.50;99.00;;;;;;4172463;28;20084;-63
2022/04/29 00:39:12;;;;;;;8.93;4.97;;;12.50;99.40;;;;;;4174154;28;20048;-62
2022/04/29 00:41:17;;;;;;;9.38;5.80;;;12.40;99.50;;;;;;4166963;28;20038;-62
2022/04/29 00:43:18;;;;;;;6.80;4.72;;;12.30;99.90;;;;;;4169572;28;20037;-62
2022/04/29 00:45:20;;;;;;;9.80;5.57;;;12.20;99.90;;;;;;4174529;28;20060;-62
2022/04/29 00:47:21;;;;;;;12.32;5.78;;;12.20;99.90;;;;;;4171248;28;20025;-62
2022/04/29 00:49:22;;;;;;;8.80;4.72;;;12.20;99.90;;;;;;4173464;28;20033;-62
2022/04/29 00:51:22;;;;;;;8.13;4.53;;;12.30;99.90;;;;;;4167998;28;20037;-62
2022/04/29 00:53:24;;;;;;;7.32;4.80;;;12.30;99.90;;;;;;4175933;28;20029;-62
2022/04/29 00:55:25;;;;;;;8.27;4.80;;;12.30;99.90;;;;;;4167948;28;20033;-62
2022/04/29 00:57:48;;;;;;;10.77;5.40;;;12.30;99.90;;;;;;4163672;28;20037;-62
2022/04/29 01:00:05;;;;;;;7.85;4.72;;;12.30;99.90;;;;;;4171722;28;20041;-62
2022/04/29 01:02:08;;;;;;;8.85;4.68;;;12.30;99.90;;;;;;4172301;28;20434;-62
2022/04/29 01:04:18;;;;;;;9.00;4.72;;;12.40;99.90;;;;;;4166424;28;20045;-63
2022/04/29 01:06:18;;;;;;;7.60;4.45;;;12.40;99.90;;;;;;4166993;28;20132;-62
2022/04/29 01:08:19;;;;;;;6.22;4.13;;;12.40;99.90;;;;;;4171799;28;20040;-62
2022/04/29 01:10:22;;;;;;;6.68;4.18;;;12.40;99.90;;;;;;4169786;28;20025;-62
2022/04/29 01:12:25;;;;;;;6.65;3.97;;;12.40;99.90;;;;;;4171031;28;20387;-62
2022/04/29 01:14:25;;;;;;;11.27;4.30;;;12.40;99.90;;;;;;4173137;28;20388;-62
2022/04/29 01:16:26;;;;;;;9.63;4.70;;;12.40;99.90;;;;;;4170911;28;20025;-62
2022/04/29 01:18:27;;;;;;;9.45;4.45;;;12.40;99.90;;;;;;4172406;28;20088;-64
2022/04/29 01:20:30;;;;;;;7.38;4.43;;;12.40;99.90;;;;;;4173875;28;20072;-63
2022/04/29 01:22:31;;;;;;;6.28;4.43;;;12.40;99.90;;;;;;4175123;28;20041;-62
2022/04/29 01:24:32;;;;;;;8.95;4.75;;;12.40;99.90;;;;;;4171800;28;20523;-62
2022/04/29 01:26:34;;;;;;;9.82;4.78;;;12.40;99.90;;;;;;4167733;28;20029;-62
2022/04/29 01:28:35;;;;;;;8.80;4.28;;;12.40;99.90;;;;;;4173083;28;20357;-62
2022/04/29 01:30:37;;;;;;;8.27;4.10;;;12.40;99.90;;;;;;4171806;28;20043;-61
2022/04/29 01:32:39;;;;;;;9.00;4.57;;;12.40;99.90;;;;;;4172536;28;20079;-63
2022/04/29 01:34:40;;;;;;;10.90;5.03;;;12.40;99.90;;;;;;4167590;28;20120;-62
2022/04/29 01:36:40;;;;;;;8.50;5.10;;;12.30;99.90;;;;;;4171586;28;20283;-62
2022/04/29 01:38:41;;;;;;;7.75;4.38;;;12.30;99.90;;;;;;4163779;28;20041;-62
2022/04/29 01:40:42;;;;;;;8.75;5.05;;;12.30;99.90;;;;;;4169789;28;20037;-63
2022/04/29 01:42:44;;;;;;;11.98;4.63;;;12.30;99.90;;;;;;4169252;28;20033;-62
2022/04/29 01:44:47;;;;;;;9.30;5.28;;;12.30;99.90;;;;;;4170716;28;20045;-62
2022/04/29 01:46:48;;;;;;;8.80;4.70;;;12.30;99.90;;;;;;4169644;28;20108;-62
2022/04/29 01:48:49;;;;;;;14.45;5.00;;;12.30;99.90;;;;;;4170911;28;20542;-62
2022/04/29 01:50:49;;;;;;;6.65;4.50;;;12.30;99.90;;;;;;4173143;28;20025;-62
2022/04/29 01:52:50;;;;;;;9.23;5.15;;;12.30;99.90;;;;;;4168133;28;20055;-62
2022/04/29 01:54:50;;;;;;;6.78;3.67;;;12.30;99.90;;;;;;4171532;28;20028;-62
2022/04/29 01:56:52;;;;;;;10.85;4.63;;;12.30;99.90;;;;;;4170543;28;20071;-62
2022/04/29 01:58:53;;;;;;;8.95;4.30;;;12.20;99.90;;;;;;4169150;28;20041;-62
2022/04/29 02:00:54;;;;;;;8.15;4.50;;;12.20;99.90;;;;;;4171437;28;20018;-62
2022/04/29 02:02:55;;;;;;;9.63;5.05;;;12.20;99.90;;;;;;4168263;28;20075;-62
2022/04/29 02:04:56;;;;;;;8.45;4.60;;;12.20;99.90;;;;;;4171643;28;20076;-62
2022/04/29 02:06:56;;;;;;;12.93;5.07;;;12.20;99.90;;;;;;4171692;28;20033;-62
2022/04/29 02:08:57;;;;;;;5.32;4.22;;;12.10;99.90;;;;;;4176056;28;20108;-62
2022/04/29 02:10:57;;;;;;;7.53;4.32;;;12.10;99.90;;;;;;4174433;28;20037;-63
2022/04/29 02:12:58;;;;;;;9.07;4.47;;;12.10;99.90;;;;;;4167411;28;20037;-62
2022/04/29 02:14:59;;;;;;;11.05;4.63;;;12.10;99.90;;;;;;4173760;28;20048;-63
2022/04/29 02:17:01;;;;;;;7.70;4.80;;;12.00;99.90;;;;;;4171084;28;22225;-62
2022/04/29 02:19:02;;;;;;;10.07;4.82;;;12.00;99.90;;;;;;4166854;28;20032;-63
2022/04/29 02:21:03;;;;;;;7.18;4.30;;;12.00;99.90;;;;;;4173966;28;20413;-62
2022/04/29 02:23:03;;;;;;;8.63;4.22;;;12.00;99.90;;;;;;4171504;28;20025;-62
2022/04/29 02:25:05;;;;;;;9.95;4.90;;;12.00;99.90;;;;;;4166656;28;20094;-63
2022/04/29 02:27:07;;;;;;;8.85;5.00;;;11.90;99.90;;;;;;4166219;28;20037;-62
2022/04/29 02:29:07;;;;;;;8.65;4.63;;;11.80;99.90;;;;;;4173492;28;20510;-62
2022/04/29 02:31:08;;;;;;;12.48;5.43;;;11.80;99.90;;;;;;4173873;28;20069;-62
2022/04/29 02:33:08;;;;;;;8.82;5.22;;;11.80;99.90;;;;;;4170841;28;20370;-62
2022/04/29 02:35:09;;;;;;;8.65;4.82;;;11.80;99.90;;;;;;4167918;28;20040;-64
2022/04/29 02:37:10;;;;;;;10.63;4.80;;;11.70;99.90;;;;;;4166530;28;20037;-62
2022/04/29 02:39:10;;;;;;;9.43;4.63;;;11.60;99.90;;;;;;4167162;28;20045;-63
2022/04/29 02:41:11;;;;;;;10.02;5.20;;;11.60;99.90;;;;;;4170536;28;20048;-62
2022/04/29 02:43:12;;;;;;;9.95;4.93;;;11.40;99.90;;;;;;4170309;28;20041;-63
2022/04/29 02:45:13;;;;;;;10.98;5.65;;;11.40;99.90;;;;;;4170803;28;20043;-63
2022/04/29 02:47:13;;;;;;;9.48;4.95;;;11.30;99.90;;;;;;4167335;28;20048;-63
2022/04/29 02:49:14;;;;;;;10.25;4.95;;;11.20;99.90;;;;;;4171311;28;20602;-63
2022/04/29 02:51:15;;;;;;;9.23;4.85;;;11.10;99.90;;;;;;4169520;28;20496;-62
2022/04/29 02:53:16;;;;;;;10.13;5.30;;;11.00;99.90;;;;;;4172112;28;20365;-62
2022/04/29 02:55:17;;;;;;;9.82;4.80;;;11.00;99.90;;;;;;4162418;28;20068;-62
2022/04/29 02:57:18;;;;;;;10.70;5.13;;;10.90;99.90;;;;;;4170867;28;20451;-62
2022/04/29 02:59:19;;;;;;;7.38;4.68;;;11.00;99.90;;;;;;4163827;28;20120;-62
2022/04/29 03:01:20;;;;;;;11.02;4.78;;;11.00;99.90;;;;;;4175563;28;20044;-62
2022/04/29 03:03:20;;;;;;;7.18;4.60;;;11.00;99.90;;;;;;4171874;28;20037;-62
2022/04/29 03:05:21;;;;;;;9.18;4.57;;;11.00;99.90;;;;;;4170082;28;20059;-62
2022/04/29 03:07:21;;;;;;;9.25;4.63;;;11.00;99.90;;;;;;4173508;28;20033;-62
2022/04/29 03:09:22;;;;;;;10.43;4.70;;;11.00;99.90;;;;;;4172710;28;20079;-62
2022/04/29 03:11:24;;;;;;;11.45;5.15;;;10.90;99.90;;;;;;4172362;28;20029;-62
2022/04/29 03:13:26;;;;;;;8.75;4.63;;;10.90;99.90;;;;;;4175501;28;20034;-62
2022/04/29 03:15:27;;;;;;;7.13;4.60;;;10.90;99.90;;;;;;4173153;28;20326;-62
2022/04/29 03:19:47;;;;;;;9.82;4.78;;;10.70;99.90;;;;;;4171614;28;20033;-61
2022/04/29 03:21:48;;;;;;;9.55;4.80;;;10.70;99.90;;;;;;4171536;28;20051;-63
2022/04/29 03:23:49;;;;;;;10.68;5.15;;;10.70;99.90;;;;;;4176641;28;20040;-62
2022/04/29 03:25:49;;;;;;;7.05;4.00;;;10.70;99.90;;;;;;4168639;28;20042;-61
2022/04/29 03:27:50;;;;;;;9.20;5.00;;;10.70;99.90;;;;;;4169691;28;20034;-62
2022/04/29 03:29:50;;;;;;;13.13;4.82;;;10.70;99.90;;;;;;4172295;28;20029;-62
2022/04/29 03:31:51;;;;;;;9.57;4.80;;;10.70;99.90;;;;;;4174688;28;20021;-62
2022/04/29 03:33:52;;;;;;;9.02;5.15;;;10.50;99.90;;;;;;4172172;28;20067;-62
2022/04/29 03:35:55;;;;;;;9.43;4.72;;;10.50;99.90;;;;;;4170729;28;20033;-62
2022/04/29 03:37:56;;;;;;;12.15;5.10;;;10.50;99.90;;;;;;4175975;28;20040;-62
2022/04/29 03:39:56;;;;;;;8.27;4.88;;;10.50;99.90;;;;;;4173649;28;20029;-61
2022/04/29 03:41:57;;;;;;;10.27;5.30;;;10.40;99.90;;;;;;4169731;28;20099;-62
2022/04/29 03:43:57;;;;;;;8.43;4.85;;;10.40;99.90;;;;;;4175198;28;20041;-62
2022/04/29 03:45:58;;;;;;;6.53;4.53;;;10.50;99.90;;;;;;4172644;28;20041;-62
2022/04/29 03:47:59;;;;;;;8.18;4.93;;;10.50;99.90;;;;;;4173988;28;20186;-64
2022/04/29 03:50:01;;;;;;;8.85;4.63;;;10.60;99.90;;;;;;4172446;28;20033;-63
2022/04/29 03:52:02;;;;;;;6.28;4.63;;;10.60;99.90;;;;;;4170304;28;20496;-62
2022/04/29 03:54:03;;;;;;;7.68;4.70;;;10.60;99.90;;;;;;4171336;28;20037;-62
2022/04/29 03:56:04;;;;;;;8.02;4.50;;;10.70;99.90;;;;;;4170791;28;20044;-63
2022/04/29 03:58:04;;;;;;;7.60;4.45;;;10.70;99.90;;;;;;4170501;28;20388;-62
2022/04/29 04:00:06;;;;;;;7.32;4.60;;;10.70;99.90;;;;;;4173161;28;20051;-63
2022/04/29 04:02:07;;;;;;;9.40;4.70;;;10.80;99.90;;;;;;4166766;28;20076;-62
2022/04/29 04:04:07;;;;;;;6.88;4.70;;;10.80;99.90;;;;;;4173323;28;20370;-62
2022/04/29 04:08:27;;;;;;;11.18;5.30;;;10.80;99.90;;;;;;4170924;28;20056;-62
2022/04/29 04:10:28;;;;;;;11.05;5.18;;;10.80;99.90;;;;;;4172467;28;20037;-62
2022/04/29 04:12:43;;;;;;;6.75;4.32;;;10.80;99.90;;;;;;4168923;28;20072;-62
2022/04/29 04:14:43;;;;;;;8.43;4.78;;;10.90;99.90;;;;;;4165623;28;20025;-62
2022/04/29 04:16:45;;;;;;;7.93;4.78;;;10.90;99.90;;;;;;4169203;28;20029;-62
2022/04/29 04:18:45;;;;;;;8.43;5.20;;;10.90;99.90;;;;;;4173068;28;20467;-62
2022/04/29 04:20:48;;;;;;;7.25;4.50;;;10.80;99.90;;;;;;4176549;28;20032;-63
2022/04/29 04:22:49;;;;;;;10.73;5.18;;;10.80;99.90;;;;;;4175132;28;20037;-63
2022/04/29 04:24:49;;;;;;;10.55;5.13;;;10.80;99.90;;;;;;4174823;28;20056;-62
2022/04/29 04:26:50;;;;;;;7.32;5.00;;;10.80;99.90;;;;;;4174335;28;20116;-62
2022/04/29 04:28:51;;;;;;;8.85;5.18;;;10.80;99.90;;;;;;4175539;28;20036;-62
2022/04/29 04:30:51;;;;;;;9.75;4.63;;;10.80;99.90;;;;;;4173266;28;20037;-62
2022/04/29 04:32:52;;;;;;;8.02;4.60;;;10.80;99.90;;;;;;4175577;28;20065;-62
2022/04/29 04:34:54;;;;;;;9.48;5.72;;;10.80;99.90;;;;;;4177026;28;20163;-62
2022/04/29 04:36:54;;;;;;;7.97;4.80;;;10.80;99.90;;;;;;4173473;28;20506;-62
2022/04/29 04:38:55;;;;;;;10.65;4.88;;;10.80;99.90;;;;;;4175748;28;20058;-62
2022/04/29 04:40:56;;;;;;;9.40;5.10;;;10.80;99.90;;;;;;4173124;28;20075;-62
2022/04/29 04:42:57;;;;;;;9.18;5.13;;;10.80;99.90;;;;;;4173508;28;20038;-62
2022/04/29 04:44:58;;;;;;;9.90;4.28;;;10.70;99.90;;;;;;4173067;28;20044;-62
2022/04/29 04:46:58;;;;;;;8.65;5.15;;;10.70;99.90;;;;;;4169876;28;20045;-62
2022/04/29 04:48:59;;;;;;;7.93;4.75;;;10.70;99.90;;;;;;4173340;28;20067;-62
2022/04/29 04:51:03;;;;;;;6.72;4.57;;;10.70;99.90;;;;;;4174563;28;20033;-62
2022/04/29 04:53:04;;;;;;;8.85;4.32;;;10.70;99.90;;;;;;4173561;28;20060;-63
2022/04/29 04:55:06;;;;;;;9.02;4.80;;;10.70;99.90;;;;;;4170789;28;20045;-65
2022/04/29 04:57:07;;;;;;;10.88;5.55;;;10.70;99.90;;;;;;4171650;28;20037;-63
2022/04/29 04:59:08;;;;;;;9.35;5.40;;;10.70;99.90;;;;;;4172313;28;20760;-62
2022/04/29 05:01:08;;;;;;;9.93;5.00;;;10.70;99.90;;;;;;4173720;28;20040;-63
2022/04/29 05:03:09;;;;;;;6.45;4.95;;;10.70;99.90;;;;;;4169980;28;20496;-63
2022/04/29 05:05:10;;;;;;;7.03;4.75;;;10.70;99.90;;;;;;4171030;28;20397;-63
2022/04/29 05:07:11;;;;;;;11.57;5.38;;;10.70;99.90;;;;;;4173204;28;20125;-63
2022/04/29 05:09:11;;;;;;;12.10;5.45;;;10.70;99.90;;;;;;4171923;28;20037;-63
2022/04/29 05:11:12;;;;;;;12.95;5.57;;;10.60;99.90;;;;;;4175155;28;20086;-63
2022/04/29 05:13:12;;;;;;;8.90;5.18;;;10.50;99.90;;;;;;4173809;28;20064;-63
2022/04/29 05:15:14;;;;;;;10.25;4.95;;;10.40;99.90;;;;;;4172767;28;20052;-63
2022/04/29 05:17:14;;;;;;;12.23;5.82;;;10.30;99.90;;;;;;4172767;28;20045;-63
2022/04/29 05:19:15;;;;;;;10.52;5.85;;;10.10;99.90;;;;;;4168206;28;20037;-63
2022/04/29 05:21:16;;;;;;;8.95;5.43;;;10.10;99.90;;;;;;4171849;28;20184;-62
2022/04/29 05:23:16;;;;;;;9.02;5.18;;;10.30;99.90;;;;;;4169068;28;20040;-63
2022/04/29 05:25:17;;;;;;;10.57;5.38;;;10.40;99.90;;;;;;4171523;28;20063;-63
2022/04/29 05:27:18;;;;;;;12.90;5.47;;;10.50;99.90;;;;;;4174224;28;20045;-63
2022/04/29 05:29:18;;;;;;;8.70;4.72;;;10.50;99.90;;;;;;4172727;28;20058;-63
2022/04/29 05:31:19;;;;;;;14.07;5.55;;;10.70;99.90;;;;;;4174462;28;20041;-63
2022/04/29 05:33:20;;;;;;;10.98;6.00;;;10.80;99.90;;;;;;4172424;28;23042;-62
2022/04/29 05:35:22;;;;;;;10.02;5.78;;;10.80;99.90;;;;;;4174205;28;20041;-63
2022/04/29 05:37:24;;;;;;;9.27;6.03;;;10.90;99.90;;;;;;4173749;28;20041;-63
2022/04/29 05:44:03;;;;;;;15.65;6.55;;;11.10;99.90;;;;;;4171777;28;20220;-63
2022/04/29 05:46:04;;;;;;;12.88;6.32;;;11.20;99.90;;;;;;4173052;28;20086;-62
2022/04/29 05:48:04;;;;;;;12.13;6.47;;;11.20;99.90;;;;;;4174654;28;20056;-63
2022/04/29 05:50:06;;;;;;;13.90;6.70;;;11.10;99.90;;;;;;4170023;28;20033;-64
2022/04/29 05:52:08;;;;;;;14.43;7.05;;;11.10;99.90;;;;;;4175512;28;20376;-64
2022/04/29 05:54:09;;;;;;;13.87;7.20;;;11.00;99.90;;;;;;4167730;28;20040;-64
2022/04/29 05:56:10;;;;;;;11.15;7.32;;;10.60;99.90;;;;;;4171590;28;20654;-64
2022/04/29 05:58:11;;;;;;;13.73;6.70;;;10.50;99.90;;;;;;4170377;28;20112;-63
2022/04/29 06:00:12;;;;;;;14.25;6.47;;;10.60;99.90;;;;;;4170570;28;20060;-65
2022/04/29 06:02:12;;;;;;;14.00;7.60;;;10.60;99.90;;;;;;4171432;28;20500;-63
2022/04/29 06:04:13;;;;;;;12.13;6.80;;;10.30;99.90;;;;;;4171521;28;20059;-63
2022/04/29 06:06:13;;;;;;;14.35;7.28;;;10.50;99.90;;;;;;4171298;28;20052;-63
2022/04/29 06:08:14;;;;;;;15.60;7.75;;;10.20;99.90;;;;;;4173353;28;20060;-63
2022/04/29 06:10:15;;;;;;;12.50;7.35;;;10.00;99.90;;;;;;4170234;28;20044;-63
2022/04/29 06:12:15;;;;;;;11.15;6.55;;;10.20;99.90;;;;;;4172677;28;20052;-63
2022/04/29 06:14:16;;;;;;;11.73;6.53;;;10.40;99.90;;;;;;4171735;28;20033;-63
2022/04/29 06:16:17;;;;;;;11.13;6.22;;;10.40;99.90;;;;;;4170581;28;20420;-63
2022/04/29 06:18:17;;;;;;;10.80;6.28;;;10.50;99.90;;;;;;4171749;28;20090;-64
2022/04/29 06:20:18;;;;;;;16.85;8.18;;;10.60;99.90;;;;;;4170997;28;20912;-63
2022/04/29 06:22:18;;;;;;;16.60;6.82;;;10.60;99.90;;;;;;4173490;28;20040;-64
2022/04/29 06:24:19;;;;;;;11.27;7.05;;;10.70;99.90;;;;;;4170632;28;20096;-63
2022/04/29 06:26:20;;;;;;;11.43;6.50;;;10.70;99.90;;;;;;4171008;28;20045;-64
2022/04/29 06:28:20;;;;;;;13.07;7.40;;;10.80;99.90;;;;;;4172177;28;20044;-63
2022/04/29 06:30:21;;;;;;;13.07;7.22;;;10.90;99.90;;;;;;4172222;28;20516;-63
2022/04/29 06:32:22;;;;;;;11.07;6.70;;;11.00;99.90;;;;;;4171637;28;20025;-63
2022/04/29 06:34:22;;;;;;;12.60;6.93;;;11.10;99.90;;;;;;4170493;28;20451;-63
2022/04/29 06:36:23;;;;;;;11.75;6.88;;;11.20;99.90;;;;;;4172457;28;20144;-63
2022/04/29 06:38:24;;;;;;;12.32;6.78;;;11.30;99.90;;;;;;4171878;28;20412;-62
2022/04/29 06:40:25;;;;;;;11.32;6.95;;;11.40;99.90;;;;;;4171077;28;20052;-63
2022/04/29 06:42:25;;;;;;;13.10;7.13;;;11.40;99.90;;;;;;4173275;28;20116;-63
2022/04/29 06:44:26;;;;;;;11.68;7.18;;;11.50;99.90;;;;;;4174252;28;20411;-63
2022/04/29 06:46:26;;;;;;;15.38;8.15;;;11.60;99.90;;;;;;4175323;28;20049;-63
2022/04/29 06:48:28;;;;;;;13.93;7.65;;;11.60;99.90;;;;;;4172661;28;20036;-63
2022/04/29 06:50:28;;;;;;;13.80;7.78;;;11.60;99.90;;;;;;4175035;28;20059;-63
2022/04/29 06:52:29;;;;;;;15.25;7.60;;;11.70;99.90;;;;;;4173018;28;20480;-63
2022/04/29 06:54:30;;;;;;;17.00;7.88;;;11.70;99.90;;;;;;4174830;28;20395;-63
2022/04/29 06:56:30;;;;;;;17.20;8.15;;;11.90;99.90;;;;;;4173899;28;20061;-63
2022/04/29 06:58:32;;;;;;;15.77;7.72;;;11.90;99.90;;;;;;4174573;28;20037;-63
2022/04/29 07:00:33;;;;;;;14.80;7.15;;;11.90;99.90;;;;;;4172804;28;20439;-64
2022/04/29 07:02:34;;;;;;;15.48;7.82;;;12.00;99.90;;;;;;4173836;28;20040;-63
2022/04/29 07:04:34;;;;;;;17.00;8.52;;;12.10;99.90;;;;;;4173954;28;20052;-63
2022/04/29 07:06:35;;;;;;;16.25;8.13;;;11.90;99.90;;;;;;4173694;28;20876;-63
2022/04/29 07:08:36;;;;;;;12.65;7.30;;;11.80;99.90;;;;;;4172927;28;20037;-63
2022/04/29 07:10:37;;;;;;;11.52;7.28;;;12.00;99.90;;;;;;4175052;28;20072;-63
2022/04/29 07:12:42;;;;;;;18.25;7.88;;;11.90;99.90;;;;;;4174050;28;20029;-63
2022/04/29 07:14:43;;;;;;;13.55;7.53;;;11.90;99.90;;;;;;4174550;28;20037;-63
2022/04/29 07:16:44;;;;;;;12.95;7.65;;;11.90;99.90;;;;;;4169434;28;20361;-63
2022/04/29 07:18:45;;;;;;;17.13;7.90;;;12.00;99.90;;;;;;4174041;28;20086;-63
2022/04/29 07:20:45;;;;;;;15.13;6.97;;;12.10;99.90;;;;;;4173877;28;20029;-63
2022/04/29 07:22:46;;;;;;;14.13;7.38;;;12.20;99.90;;;;;;4175271;28;20033;-63
2022/04/29 07:24:47;;;;;;;18.05;7.85;;;12.30;99.90;;;;;;4173818;28;20025;-63
2022/04/29 07:26:47;;;;;;;17.65;8.05;;;12.30;99.90;;;;;;4170732;28;20076;-63
2022/04/29 07:28:48;;;;;;;21.30;9.25;;;12.30;99.90;;;;;;4175179;28;20405;-63
2022/04/29 07:30:48;;;;;;;13.65;8.40;;;12.00;99.90;;;;;;4171140;28;20052;-63
2022/04/29 07:32:49;;;;;;;13.27;7.60;;;12.20;99.90;;;;;;4173886;28;20419;-63
2022/04/29 07:42:04;;;;;;;14.00;7.82;;;12.40;99.90;;;;;;4139870;28;20736;-63
2022/04/29 07:44:06;;;;;;;19.90;8.90;;;12.50;99.90;;;;;;4155632;28;20155;-63
2022/04/29 07:46:10;;;;;;;14.45;7.43;;;12.40;99.90;;;;;;4173745;28;20053;-63
2022/04/29 07:48:11;;;;;;;13.18;7.50;;;12.50;99.90;;;;;;4173454;28;20098;-63
2022/04/29 07:50:13;;;;;;;15.98;8.40;;;12.60;99.90;;;;;;4172999;28;20040;-63
2022/04/29 07:52:13;;;;;;;16.70;8.35;;;12.60;99.90;;;;;;4174753;28;20500;-63
2022/04/29 07:54:15;;;;;;;14.73;7.80;;;12.60;99.90;;;;;;4173202;28;20051;-63
2022/04/29 07:56:15;;;;;;;13.00;7.82;;;12.60;99.90;;;;;;4174069;28;20071;-64
2022/04/29 07:58:16;;;;;;;16.13;8.63;;;12.70;99.90;;;;;;4174546;28;20500;-64
2022/04/29 08:00:18;;;;;;;17.00;9.02;;;12.70;99.90;;;;;;4173215;28;20032;-63
2022/04/29 08:02:18;;;;;;;14.35;7.63;;;12.70;99.90;;;;;;4175044;28;21179;-63
2022/04/29 08:04:19;;;;;;;21.02;8.98;;;12.80;99.90;;;;;;4167996;28;20504;-63
2022/04/29 08:06:21;;;;;;;14.38;8.15;;;12.80;99.90;;;;;;4169131;28;20037;-63
2022/04/29 08:08:21;;;;;;;14.85;8.18;;;12.80;99.90;;;;;;4173324;28;20033;-63
2022/04/29 08:10:23;;;;;;;17.95;9.57;;;12.90;99.90;;;;;;4171920;28;20493;-63
2022/04/29 08:12:26;;;;;;;18.70;8.90;;;12.90;99.90;;;;;;4175109;28;20051;-63
2022/04/29 08:14:27;;;;;;;13.77;8.38;;;12.80;99.90;;;;;;4173921;28;20495;-63
2022/04/29 08:16:30;;;;;;;14.57;7.72;;;12.90;99.90;;;;;;4172869;28;20109;-63
2022/04/29 08:18:31;;;;;;;10.02;7.45;;;12.90;99.90;;;;;;4164596;28;20115;-63
2022/04/29 08:20:32;;;;;;;13.25;8.13;;;13.00;99.90;;;;;;4171301;28;20049;-63
2022/04/29 08:22:36;;;;;;;14.13;8.15;;;13.10;99.90;;;;;;4169370;28;20048;-64
2022/04/29 08:24:37;;;;;;;14.60;7.75;;;13.10;99.90;;;;;;4173560;28;20069;-63
2022/04/29 08:26:38;;;;;;;14.75;8.10;;;13.20;99.90;;;;;;4173808;28;20040;-63
2022/04/29 08:28:38;;;;;;;12.50;7.60;;;13.30;99.90;;;;;;4172603;28;20033;-63
2022/04/29 08:30:39;;;;;;;16.15;7.63;;;13.40;99.90;;;;;;4168592;28;20036;-62
2022/04/29 08:32:41;;;;;;;13.68;8.90;;;13.40;99.90;;;;;;4172881;28;20037;-63
2022/04/29 08:34:42;;;;;;;;;;;13.50;99.90;;;;;;4174606;28;20043;-63
2022/04/29 08:36:43;;;;;;;10.25;6.53;;;13.60;99.90;;;;;;4162347;28;20015;-63
2022/04/29 08:38:44;;;;;;;12.35;7.13;;;13.60;99.90;;;;;;4182700;28;20037;-63
2022/04/29 08:40:46;;;;;;;12.10;6.90;;;13.70;99.90;;;;;;4172907;28;20546;-68
2022/04/29 08:42:46;;;;;;;10.88;7.43;;;13.80;99.90;;;;;;4172566;28;20037;-63
2022/04/29 08:44:52;;;;;;;14.60;7.38;;;13.90;99.90;;;;;;4173473;28;20122;-63
2022/04/29 08:46:53;;;;;;;20.10;9.80;;;14.00;99.90;;;;;;4175623;28;20041;-63
2022/04/29 08:48:58;;;;;;;17.52;8.43;;;14.10;99.90;;;;;;4174369;28;20128;-63
2022/04/29 08:50:59;;;;;;;14.23;8.10;;;14.20;99.90;;;;;;4171979;28;20025;-63
2022/04/29 08:53:00;;;;;;;12.40;7.22;;;14.10;99.90;;;;;;4172748;28;20033;-63
2022/04/29 08:59:46;;;;;;;14.00;7.68;;;14.50;99.90;;;;;;4164580;28;21034;-64
2022/04/29 09:01:47;;;;;;;14.82;6.82;;;14.60;99.90;;;;;;4173773;28;20044;-64
2022/04/29 09:03:48;;;;;;;16.08;7.82;;;14.60;99.90;;;;;;4173325;28;20092;-64
2022/04/29 09:05:50;;;;;;;12.18;7.18;;;14.70;99.90;;;;;;4171943;28;20060;-64
2022/04/29 09:07:55;;;;;;;10.93;7.18;;;14.70;99.90;;;;;;4174722;28;20369;-64
2022/04/29 09:10:06;;;;;;;13.38;7.40;;;14.80;99.90;;;;;;4173304;28;20519;-65
2022/04/29 09:12:16;;;;;;;17.50;7.78;;;14.90;99.90;;;;;;4172297;28;20047;-64
2022/04/29 09:14:25;;;;;;;11.82;7.18;;;15.00;99.90;;;;;;4174146;28;20504;-64
2022/04/29 09:16:26;;;;;;;12.18;7.38;;;15.10;99.90;;;;;;4174290;28;20095;-64
2022/04/29 09:18:32;;;;;;;15.30;7.97;;;15.00;99.90;;;;;;4174070;28;20091;-64
2022/04/29 09:20:33;;;;;;;14.07;6.70;;;15.00;99.90;;;;;;4172766;28;20108;-64
2022/04/29 09:22:34;;;;;;;13.85;6.60;;;15.00;99.90;;;;;;4172775;28;20069;-64
2022/04/29 09:24:35;;;;;;;24.63;7.07;;;15.10;99.90;;;;;;4173854;28;20072;-63
2022/04/29 09:26:38;;;;;;;12.77;7.25;;;15.10;99.90;;;;;;4174696;28;20455;-62
2022/04/29 09:28:39;;;;;;;11.60;7.20;;;15.20;99.90;;;;;;4173951;28;20071;-62
2022/04/29 09:30:41;;;;;;;12.98;6.32;;;15.20;99.90;;;;;;4173600;28;20029;-62
2022/04/29 09:32:48;;;;;;;12.27;6.93;;;15.10;99.90;;;;;;4174507;28;20060;-63
2022/04/29 09:34:53;;;;;;;11.40;7.28;;;15.20;99.90;;;;;;4172326;28;20468;-62
2022/04/29 09:36:54;;;;;;;16.15;7.40;;;15.20;99.90;;;;;;4172811;28;20395;-63
2022/04/29 09:41:23;;;;;;;11.73;6.47;;;15.30;99.90;;;;;;4176139;28;20053;-63
2022/04/29 09:43:44;;;;;;;14.80;6.68;;;15.40;99.90;;;;;;4171470;28;20043;-62
2022/04/29 09:45:45;;;;;;;13.75;6.70;;;15.50;99.90;;;;;;4172871;28;20098;-63
2022/04/29 09:47:52;;;;;;;11.38;6.85;;;15.50;99.90;;;;;;4169572;28;20029;-64
2022/04/29 09:49:59;;;;;;;11.68;6.15;;;15.60;99.90;;;;;;4173478;28;20056;-63
2022/04/29 09:52:00;;;;;;;8.85;5.43;;;15.60;99.90;;;;;;4174432;28;20029;-63
2022/04/29 09:54:08;;;;;;;11.63;6.15;;;15.70;99.90;;;;;;4173948;28;20041;-63
2022/04/29 09:56:11;;;;;;;13.13;6.57;;;15.70;99.90;;;;;;4174005;28;20048;-62
2022/04/29 09:58:11;;;;;;;12.05;6.40;;;15.80;99.90;;;;;;4171471;28;20033;-63
2022/04/29 10:00:12;;;;;;;11.20;5.68;;;15.80;99.90;;;;;;4171738;28;20116;-64
2022/04/29 10:02:15;;;;;;;10.20;5.53;;;15.90;99.90;;;;;;4171009;28;20041;-63
2022/04/29 10:04:16;;;;;;;18.13;7.18;;;16.00;99.90;;;;;;4174329;28;20036;-63
2022/04/29 10:06:20;;;;;;;15.50;7.53;;;16.00;99.90;;;;;;4171932;28;20044;-63
2022/04/29 10:08:24;;;;;;;16.35;7.53;;;16.00;99.90;;;;;;4174267;28;20090;-63
2022/04/29 10:10:30;;;;;;;14.27;5.97;;;15.90;99.90;;;;;;4173063;28;20044;-63
2022/04/29 10:12:32;;;;;;;14.20;6.93;;;15.90;99.90;;;;;;4174447;28;20033;-63
2022/04/29 10:14:36;;;;;;;;;;;15.90;99.90;;;;;;4171402;28;20064;-63
2022/04/29 10:16:38;;;;;;;11.70;5.68;;;15.90;99.90;;;;;;4175458;28;19999;-63
2022/04/29 10:21:16;;;;;;;11.27;5.75;;;16.00;99.90;;;;;;4174801;28;20065;-63
2022/04/29 10:23:16;;;;;;;11.82;5.70;;;16.10;99.90;;;;;;4177465;28;20029;-64
2022/04/29 10:25:23;;;;;;;11.18;6.07;;;16.10;99.90;;;;;;4173742;28;20041;-63
2022/04/29 10:27:26;;;;;;;10.52;5.70;;;16.20;99.90;;;;;;4176236;28;20072;-63
2022/04/29 10:29:27;;;;;;;9.57;5.72;;;16.20;99.90;;;;;;4177115;28;20380;-63
2022/04/29 10:31:31;;;;;;;9.43;5.13;;;16.20;99.90;;;;;;4172148;28;20029;-63
2022/04/29 10:33:32;;;;;;;12.52;5.45;;;16.20;99.90;;;;;;4178270;28;20033;-63
2022/04/29 10:35:53;;;;;;;14.18;7.00;;;16.30;99.90;;;;;;4176564;28;20037;-63
2022/04/29 10:38:31;;;;;;;15.15;6.47;;;16.20;99.90;;;;;;4175021;28;20068;-63
2022/04/29 10:40:34;;;;;;;14.25;6.15;;;16.20;99.90;;;;;;4178131;28;20040;-63
2022/04/29 10:43:08;;;;;;;12.05;5.80;;;16.30;99.90;;;;;;4172133;28;20036;-64
2022/04/29 10:45:09;;;;;;;11.55;5.32;;;16.40;99.90;;;;;;4179387;28;20033;-63
2022/04/29 10:47:37;;;;;;;10.88;5.57;;;16.40;99.90;;;;;;4173032;28;20045;-63
2022/04/29 10:49:38;;;;;;;10.95;5.47;;;16.50;99.90;;;;;;4174431;28;20037;-63
2022/04/29 10:51:52;;;;;;;11.48;6.13;;;16.60;99.90;;;;;;4175787;28;20091;-65
2022/04/29 10:53:55;;;;;;;15.18;6.88;;;16.60;99.90;;;;;;4176831;28;20025;-63
2022/04/29 10:56:16;;;;;;;;;;;16.50;99.90;;;;;;4172004;28;20036;-63